sensor_id;sensor_type;location;lat;lon;timestamp;pressure;altitude;pressure_sealevel;temperature;humidity
75438;BME280;64015;49.392;15.582;2023-02-10T00:00:51;97279.88;;;-8.02;92.32
75438;BME280;64015;49.392;15.582;2023-02-10T00:03:35;97283.50;;;-8.16;92.69
75438;BME280;64015;49.392;15.582;2023-02-10T00:06:04;97284.53;;;-8.18;92.94
75438;BME280;64015;49.392;15.582;2023-02-10T00:08:35;97280.47;;;-8.10;93.08
75438;BME280;64015;49.392;15.582;2023-02-10T00:11:04;97280.25;;;-8.07;92.78
75438;BME280;64015;49.392;15.582;2023-02-10T00:24:37;97260.19;;;-8.24;92.38
75438;BME280;64015;49.392;15.582;2023-02-10T00:27:19;97277.19;;;-8.23;92.82
75438;BME280;64015;49.392;15.582;2023-02-10T00:51:42;97295.97;;;-7.67;93.86
75438;BME280;64015;49.392;15.582;2023-02-10T00:54:26;97286.66;;;-7.57;92.61
75438;BME280;64015;49.392;15.582;2023-02-10T01:01:17;97293.41;;;-7.78;91.52
75438;BME280;64015;49.392;15.582;2023-02-10T01:07:28;97288.16;;;-7.87;92.27
75438;BME280;64015;49.392;15.582;2023-02-10T01:10:09;97306.44;;;-7.92;92.37
75438;BME280;64015;49.392;15.582;2023-02-10T01:12:39;97300.16;;;-7.99;93.14
75438;BME280;64015;49.392;15.582;2023-02-10T01:15:24;97302.25;;;-7.93;93.15
75438;BME280;64015;49.392;15.582;2023-02-10T01:17:54;97303.53;;;-7.99;93.60
75438;BME280;64015;49.392;15.582;2023-02-10T01:20:27;97299.69;;;-7.93;93.13
75438;BME280;64015;49.392;15.582;2023-02-10T01:22:53;97294.22;;;-7.88;92.35
75438;BME280;64015;49.392;15.582;2023-02-10T01:25:39;97301.44;;;-7.94;93.18
75438;BME280;64015;49.392;15.582;2023-02-10T01:28:35;97302.72;;;-7.88;93.08
75438;BME280;64015;49.392;15.582;2023-02-10T01:31:21;97303.50;;;-7.87;92.38
75438;BME280;64015;49.392;15.582;2023-02-10T01:34:10;97294.31;;;-8.01;92.71
75438;BME280;64015;49.392;15.582;2023-02-10T01:36:54;97303.28;;;-8.07;93.09
75438;BME280;64015;49.392;15.582;2023-02-10T01:39:21;97299.19;;;-8.09;93.49
75438;BME280;64015;49.392;15.582;2023-02-10T01:41:56;97294.78;;;-8.07;93.70
75438;BME280;64015;49.392;15.582;2023-02-10T01:47:18;97304.41;;;-8.22;94.28
75438;BME280;64015;49.392;15.582;2023-02-10T01:49:48;97297.09;;;-8.26;93.68
75438;BME280;64015;49.392;15.582;2023-02-10T01:52:21;97298.94;;;-8.29;93.64
75438;BME280;64015;49.392;15.582;2023-02-10T01:55:04;97307.53;;;-8.30;93.62
75438;BME280;64015;49.392;15.582;2023-02-10T01:57:48;97315.47;;;-8.33;94.32
75438;BME280;64015;49.392;15.582;2023-02-10T02:00:22;97310.09;;;-8.41;93.84
75438;BME280;64015;49.392;15.582;2023-02-10T02:02:54;97305.66;;;-8.50;95.05
75438;BME280;64015;49.392;15.582;2023-02-10T02:08:24;97295.16;;;-8.58;96.02
75438;BME280;64015;49.392;15.582;2023-02-10T02:10:57;97294.69;;;-8.63;97.02
75438;BME280;64015;49.392;15.582;2023-02-10T02:16:43;97290.09;;;-8.82;97.39
75438;BME280;64015;49.392;15.582;2023-02-10T02:19:46;97282.63;;;-8.85;97.51
75438;BME280;64015;49.392;15.582;2023-02-10T02:25:24;97285.03;;;-8.94;97.98
75438;BME280;64015;49.392;15.582;2023-02-10T02:36:47;97283.72;;;-9.00;98.70
75438;BME280;64015;49.392;15.582;2023-02-10T02:39:15;97290.06;;;-9.06;98.21
75438;BME280;64015;49.392;15.582;2023-02-10T02:41:40;97293.06;;;-9.12;98.46
75438;BME280;64015;49.392;15.582;2023-02-10T02:44:07;97290.00;;;-9.17;98.77
75438;BME280;64015;49.392;15.582;2023-02-10T02:46:51;97279.38;;;-9.11;98.04
75438;BME280;64015;49.392;15.582;2023-02-10T02:49:37;97279.44;;;-8.99;96.90
75438;BME280;64015;49.392;15.582;2023-02-10T02:52:12;97279.38;;;-9.11;96.73
75438;BME280;64015;49.392;15.582;2023-02-10T02:55:03;97267.72;;;-9.15;96.96
75438;BME280;64015;49.392;15.582;2023-02-10T02:57:41;97268.25;;;-9.46;98.15
75438;BME280;64015;49.392;15.582;2023-02-10T03:00:14;97263.59;;;-9.65;99.64
75438;BME280;64015;49.392;15.582;2023-02-10T03:02:41;97258.91;;;-9.71;100.00
75438;BME280;64015;49.392;15.582;2023-02-10T03:05:31;97250.56;;;-9.73;100.00
75438;BME280;64015;49.392;15.582;2023-02-10T03:07:59;97248.78;;;-9.72;100.00
75438;BME280;64015;49.392;15.582;2023-02-10T03:10:30;97254.03;;;-9.74;100.00
75438;BME280;64015;49.392;15.582;2023-02-10T03:13:07;97256.69;;;-9.75;100.00
75438;BME280;64015;49.392;15.582;2023-02-10T03:15:33;97262.00;;;-9.78;100.00
75438;BME280;64015;49.392;15.582;2023-02-10T03:17:59;97273.09;;;-9.67;100.00
75438;BME280;64015;49.392;15.582;2023-02-10T03:20:44;97280.56;;;-9.64;100.00
75438;BME280;64015;49.392;15.582;2023-02-10T03:23:23;97277.97;;;-9.51;100.00
75438;BME280;64015;49.392;15.582;2023-02-10T03:26:16;97271.44;;;-9.55;100.00
75438;BME280;64015;49.392;15.582;2023-02-10T03:31:23;97270.09;;;-9.48;98.80
75438;BME280;64015;49.392;15.582;2023-02-10T03:38:17;97289.34;;;-9.81;100.00
75438;BME280;64015;49.392;15.582;2023-02-10T03:40:48;97291.59;;;-9.76;100.00
75438;BME280;64015;49.392;15.582;2023-02-10T03:43:36;97292.19;;;-9.72;100.00
75438;BME280;64015;49.392;15.582;2023-02-10T03:46:21;97300.19;;;-9.77;100.00
75438;BME280;64015;49.392;15.582;2023-02-10T03:48:52;97289.97;;;-9.77;100.00
75438;BME280;64015;49.392;15.582;2023-02-10T03:51:32;97285.16;;;-9.69;99.25
75438;BME280;64015;49.392;15.582;2023-02-10T03:53:59;97279.38;;;-9.84;98.79
75438;BME280;64015;49.392;15.582;2023-02-10T03:56:24;97282.75;;;-9.96;99.57
75438;BME280;64015;49.392;15.582;2023-02-10T03:58:50;97283.56;;;-10.08;100.00
75438;BME280;64015;49.392;15.582;2023-02-10T04:01:18;97287.25;;;-10.12;100.00
75438;BME280;64015;49.392;15.582;2023-02-10T04:03:44;97285.50;;;-10.11;100.00
75438;BME280;64015;49.392;15.582;2023-02-10T04:06:11;97293.03;;;-10.10;100.00
75438;BME280;64015;49.392;15.582;2023-02-10T04:08:37;97288.16;;;-10.13;100.00
75438;BME280;64015;49.392;15.582;2023-02-10T04:11:06;97285.28;;;-10.08;100.00
75438;BME280;64015;49.392;15.582;2023-02-10T04:13:35;97288.47;;;-10.05;100.00
75438;BME280;64015;49.392;15.582;2023-02-10T04:18:32;97294.81;;;-10.10;100.00
75438;BME280;64015;49.392;15.582;2023-02-10T04:20:58;97290.00;;;-10.15;100.00
75438;BME280;64015;49.392;15.582;2023-02-10T04:23:28;97286.00;;;-10.06;100.00
75438;BME280;64015;49.392;15.582;2023-02-10T04:25:54;97298.78;;;-10.19;100.00
75438;BME280;64015;49.392;15.582;2023-02-10T04:28:20;97306.56;;;-10.21;100.00
75438;BME280;64015;49.392;15.582;2023-02-10T04:30:49;97308.56;;;-10.13;100.00
75438;BME280;64015;49.392;15.582;2023-02-10T04:33:15;97311.53;;;-10.19;98.68
75438;BME280;64015;49.392;15.582;2023-02-10T04:35:41;97321.66;;;-10.30;99.21
75438;BME280;64015;49.392;15.582;2023-02-10T04:38:10;97326.44;;;-10.38;99.97
75438;BME280;64015;49.392;15.582;2023-02-10T04:40:37;97327.38;;;-10.39;100.00
75438;BME280;64015;49.392;15.582;2023-02-10T04:43:05;97331.41;;;-10.37;100.00
75438;BME280;64015;49.392;15.582;2023-02-10T04:45:31;97328.28;;;-10.40;99.79
75438;BME280;64015;49.392;15.582;2023-02-10T04:47:57;97322.03;;;-10.49;100.00
75438;BME280;64015;49.392;15.582;2023-02-10T04:50:32;97316.81;;;-10.60;100.00
75438;BME280;64015;49.392;15.582;2023-02-10T04:52:58;97318.13;;;-10.54;100.00
75438;BME280;64015;49.392;15.582;2023-02-10T04:55:24;97315.69;;;-10.56;100.00
75438;BME280;64015;49.392;15.582;2023-02-10T04:57:50;97321.91;;;-10.60;100.00
75438;BME280;64015;49.392;15.582;2023-02-10T05:00:16;97332.34;;;-10.50;100.00
75438;BME280;64015;49.392;15.582;2023-02-10T05:02:42;97332.84;;;-10.45;100.00
75438;BME280;64015;49.392;15.582;2023-02-10T05:05:09;97347.44;;;-10.47;100.00
75438;BME280;64015;49.392;15.582;2023-02-10T05:07:36;97335.59;;;-10.48;100.00
75438;BME280;64015;49.392;15.582;2023-02-10T05:10:27;97334.88;;;-10.50;100.00
75438;BME280;64015;49.392;15.582;2023-02-10T05:13:21;97336.13;;;-10.43;100.00
75438;BME280;64015;49.392;15.582;2023-02-10T05:15:47;97332.25;;;-10.49;100.00
75438;BME280;64015;49.392;15.582;2023-02-10T05:18:13;97339.09;;;-10.24;100.00
75438;BME280;64015;49.392;15.582;2023-02-10T05:20:39;97337.19;;;-10.21;100.00
75438;BME280;64015;49.392;15.582;2023-02-10T05:23:05;97332.69;;;-10.30;100.00
75438;BME280;64015;49.392;15.582;2023-02-10T05:25:31;97338.47;;;-10.28;99.85
75438;BME280;64015;49.392;15.582;2023-02-10T05:27:57;97343.13;;;-10.47;99.63
75438;BME280;64015;49.392;15.582;2023-02-10T05:30:22;97330.38;;;-10.60;100.00
75438;BME280;64015;49.392;15.582;2023-02-10T05:32:49;97342.47;;;-10.76;100.00
75438;BME280;64015;49.392;15.582;2023-02-10T05:35:14;97336.84;;;-10.81;100.00
75438;BME280;64015;49.392;15.582;2023-02-10T05:37:40;97342.31;;;-10.87;100.00
75438;BME280;64015;49.392;15.582;2023-02-10T05:40:06;97342.31;;;-10.87;100.00
75438;BME280;64015;49.392;15.582;2023-02-10T05:42:32;97351.53;;;-10.84;100.00
75438;BME280;64015;49.392;15.582;2023-02-10T05:44:58;97359.84;;;-10.82;100.00
75438;BME280;64015;49.392;15.582;2023-02-10T05:47:24;97351.31;;;-10.81;100.00
75438;BME280;64015;49.392;15.582;2023-02-10T05:49:50;97353.94;;;-10.83;100.00
75438;BME280;64015;49.392;15.582;2023-02-10T05:52:16;97363.31;;;-10.83;100.00
75438;BME280;64015;49.392;15.582;2023-02-10T05:54:42;97359.78;;;-10.81;100.00
75438;BME280;64015;49.392;15.582;2023-02-10T06:00:26;97358.63;;;-10.89;100.00
75438;BME280;64015;49.392;15.582;2023-02-10T06:02:55;97366.31;;;-10.77;100.00
75438;BME280;64015;49.392;15.582;2023-02-10T06:05:22;97368.06;;;-10.77;100.00
75438;BME280;64015;49.392;15.582;2023-02-10T06:07:50;97366.69;;;-10.83;100.00
75438;BME280;64015;49.392;15.582;2023-02-10T06:10:16;97378.81;;;-10.86;100.00
75438;BME280;64015;49.392;15.582;2023-02-10T06:12:45;97379.91;;;-10.90;100.00
75438;BME280;64015;49.392;15.582;2023-02-10T06:15:11;97384.28;;;-10.93;100.00
75438;BME280;64015;49.392;15.582;2023-02-10T06:17:37;97385.41;;;-10.97;100.00
75438;BME280;64015;49.392;15.582;2023-02-10T06:20:14;97384.16;;;-11.04;100.00
75438;BME280;64015;49.392;15.582;2023-02-10T06:26:18;97399.69;;;-10.94;100.00
75438;BME280;64015;49.392;15.582;2023-02-10T06:32:56;97409.41;;;-10.86;100.00
75438;BME280;64015;49.392;15.582;2023-02-10T06:35:22;97414.94;;;-10.80;100.00
75438;BME280;64015;49.392;15.582;2023-02-10T06:37:50;97419.84;;;-10.77;99.77
75438;BME280;64015;49.392;15.582;2023-02-10T06:40:21;97420.03;;;-10.80;100.00
75438;BME280;64015;49.392;15.582;2023-02-10T06:42:48;97422.31;;;-10.75;100.00
75438;BME280;64015;49.392;15.582;2023-02-10T06:45:15;97429.91;;;-10.61;100.00
75438;BME280;64015;49.392;15.582;2023-02-10T06:47:48;97431.06;;;-10.52;100.00
75438;BME280;64015;49.392;15.582;2023-02-10T06:50:15;97425.13;;;-10.53;100.00
75438;BME280;64015;49.392;15.582;2023-02-10T06:57:09;97421.00;;;-10.41;100.00
75438;BME280;64015;49.392;15.582;2023-02-10T07:03:40;97422.56;;;-10.26;100.00
75438;BME280;64015;49.392;15.582;2023-02-10T07:06:21;97431.66;;;-10.09;100.00
75438;BME280;64015;49.392;15.582;2023-02-10T07:08:47;97428.81;;;-10.05;100.00
75438;BME280;64015;49.392;15.582;2023-02-10T07:11:16;97443.72;;;-9.99;100.00
75438;BME280;64015;49.392;15.582;2023-02-10T07:13:42;97455.19;;;-9.92;100.00
75438;BME280;64015;49.392;15.582;2023-02-10T07:16:09;97456.50;;;-9.86;100.00
75438;BME280;64015;49.392;15.582;2023-02-10T07:18:54;97447.25;;;-9.74;100.00
75438;BME280;64015;49.392;15.582;2023-02-10T07:21:22;97446.41;;;-9.62;100.00
75438;BME280;64015;49.392;15.582;2023-02-10T07:23:51;97452.16;;;-9.46;100.00
75438;BME280;64015;49.392;15.582;2023-02-10T07:26:29;97455.22;;;-9.41;100.00
75438;BME280;64015;49.392;15.582;2023-02-10T07:28:54;97453.78;;;-9.32;100.00
75438;BME280;64015;49.392;15.582;2023-02-10T07:31:22;97449.16;;;-9.15;100.00
75438;BME280;64015;49.392;15.582;2023-02-10T07:33:48;97448.44;;;-9.04;100.00
75438;BME280;64015;49.392;15.582;2023-02-10T07:36:14;97447.28;;;-8.87;100.00
75438;BME280;64015;49.392;15.582;2023-02-10T07:38:42;97455.53;;;-8.71;100.00
75438;BME280;64015;49.392;15.582;2023-02-10T07:41:08;97447.09;;;-8.60;100.00
75438;BME280;64015;49.392;15.582;2023-02-10T07:43:36;97455.66;;;-8.49;100.00
75438;BME280;64015;49.392;15.582;2023-02-10T07:46:06;97466.28;;;-8.42;100.00
75438;BME280;64015;49.392;15.582;2023-02-10T07:48:34;97453.53;;;-8.31;100.00
75438;BME280;64015;49.392;15.582;2023-02-10T07:51:10;97456.22;;;-8.21;100.00
75438;BME280;64015;49.392;15.582;2023-02-10T07:53:36;97450.59;;;-8.03;100.00
75438;BME280;64015;49.392;15.582;2023-02-10T07:56:24;97446.81;;;-7.86;100.00
75438;BME280;64015;49.392;15.582;2023-02-10T07:59:31;97457.84;;;-7.62;100.00
75438;BME280;64015;49.392;15.582;2023-02-10T08:01:57;97452.72;;;-7.50;100.00
75438;BME280;64015;49.392;15.582;2023-02-10T08:04:24;97455.31;;;-7.28;100.00
75438;BME280;64015;49.392;15.582;2023-02-10T08:06:50;97460.22;;;-7.03;100.00
75438;BME280;64015;49.392;15.582;2023-02-10T08:09:16;97460.22;;;-6.81;99.70
75438;BME280;64015;49.392;15.582;2023-02-10T08:11:43;97471.88;;;-6.65;99.07
75438;BME280;64015;49.392;15.582;2023-02-10T08:14:08;97465.53;;;-6.39;98.73
75438;BME280;64015;49.392;15.582;2023-02-10T08:16:34;97464.50;;;-6.05;97.80
75438;BME280;64015;49.392;15.582;2023-02-10T08:19:00;97471.47;;;-5.95;98.35
75438;BME280;64015;49.392;15.582;2023-02-10T08:21:29;97469.09;;;-5.67;97.50
75438;BME280;64015;49.392;15.582;2023-02-10T08:23:56;97479.25;;;-5.44;97.51
75438;BME280;64015;49.392;15.582;2023-02-10T08:26:23;97460.19;;;-5.42;97.64
75438;BME280;64015;49.392;15.582;2023-02-10T08:29:03;97467.16;;;-5.33;98.36
75438;BME280;64015;49.392;15.582;2023-02-10T08:31:29;97465.50;;;-4.82;94.25
75438;BME280;64015;49.392;15.582;2023-02-10T08:33:55;97461.97;;;-4.41;91.40
75438;BME280;64015;49.392;15.582;2023-02-10T08:36:22;97449.13;;;-4.13;89.25
75438;BME280;64015;49.392;15.582;2023-02-10T08:38:49;97445.88;;;-3.86;87.05
75438;BME280;64015;49.392;15.582;2023-02-10T08:41:15;97443.56;;;-3.69;85.06
75438;BME280;64015;49.392;15.582;2023-02-10T08:43:49;97441.25;;;-3.44;84.71
75438;BME280;64015;49.392;15.582;2023-02-10T08:46:18;97438.06;;;-3.28;82.29
75438;BME280;64015;49.392;15.582;2023-02-10T08:48:53;97440.78;;;-3.20;81.66
75438;BME280;64015;49.392;15.582;2023-02-10T08:51:26;97455.88;;;-3.25;80.20
75438;BME280;64015;49.392;15.582;2023-02-10T08:53:51;97460.84;;;-3.14;80.62
75438;BME280;64015;49.392;15.582;2023-02-10T08:56:17;97467.47;;;-3.02;79.14
75438;BME280;64015;49.392;15.582;2023-02-10T08:58:44;97470.25;;;-2.85;78.31
75438;BME280;64015;49.392;15.582;2023-02-10T09:01:15;97472.06;;;-2.95;79.36
75438;BME280;64015;49.392;15.582;2023-02-10T09:03:42;97479.53;;;-2.92;77.22
75438;BME280;64015;49.392;15.582;2023-02-10T09:06:20;97480.31;;;-2.82;78.02
75438;BME280;64015;49.392;15.582;2023-02-10T09:08:50;97483.41;;;-2.69;76.69
75438;BME280;64015;49.392;15.582;2023-02-10T09:11:24;97490.69;;;-2.55;77.25
75438;BME280;64015;49.392;15.582;2023-02-10T09:13:50;97500.75;;;-2.52;75.23
75438;BME280;64015;49.392;15.582;2023-02-10T09:16:16;97500.25;;;-2.38;72.76
75438;BME280;64015;49.392;15.582;2023-02-10T09:18:42;97500.22;;;-2.10;70.83
75438;BME280;64015;49.392;15.582;2023-02-10T09:21:09;97507.81;;;-1.64;68.48
75438;BME280;64015;49.392;15.582;2023-02-10T09:23:35;97507.59;;;-1.09;67.37
75438;BME280;64015;49.392;15.582;2023-02-10T09:26:04;97516.38;;;-0.50;63.85
75438;BME280;64015;49.392;15.582;2023-02-10T09:28:30;97513.72;;;0.18;61.08
75438;BME280;64015;49.392;15.582;2023-02-10T09:30:56;97505.00;;;0.67;59.91
75438;BME280;64015;49.392;15.582;2023-02-10T09:33:24;97507.44;;;1.01;57.14
75438;BME280;64015;49.392;15.582;2023-02-10T09:35:50;97501.69;;;1.14;56.04
75438;BME280;64015;49.392;15.582;2023-02-10T09:38:16;97496.47;;;1.22;55.65
75438;BME280;64015;49.392;15.582;2023-02-10T09:44:10;97507.13;;;2.52;51.88
75438;BME280;64015;49.392;15.582;2023-02-10T09:54:39;97499.91;;;4.03;47.51
75438;BME280;64015;49.392;15.582;2023-02-10T09:57:16;97514.66;;;4.10;46.64
75438;BME280;64015;49.392;15.582;2023-02-10T09:59:44;97518.47;;;4.29;45.33
75438;BME280;64015;49.392;15.582;2023-02-10T10:02:34;97516.16;;;4.77;43.83
75438;BME280;64015;49.392;15.582;2023-02-10T10:05:16;97508.69;;;5.57;41.47
75438;BME280;64015;49.392;15.582;2023-02-10T10:07:49;97498.28;;;5.98;41.04
75438;BME280;64015;49.392;15.582;2023-02-10T10:10:32;97494.41;;;6.55;39.75
75438;BME280;64015;49.392;15.582;2023-02-10T10:13:03;97483.38;;;6.93;38.82
75438;BME280;64015;49.392;15.582;2023-02-10T10:15:37;97478.56;;;7.80;36.84
75438;BME280;64015;49.392;15.582;2023-02-10T10:18:14;97472.09;;;7.83;36.70
75438;BME280;64015;49.392;15.582;2023-02-10T10:20:50;97476.47;;;8.02;35.41
75438;BME280;64015;49.392;15.582;2023-02-10T10:26:04;97467.94;;;8.07;34.78
75438;BME280;64015;49.392;15.582;2023-02-10T10:31:06;97467.41;;;8.74;32.69
75438;BME280;64015;49.392;15.582;2023-02-10T10:33:49;97476.84;;;8.82;32.99
75438;BME280;64015;49.392;15.582;2023-02-10T10:36:18;97486.97;;;9.34;32.02
75438;BME280;64015;49.392;15.582;2023-02-10T10:38:53;97489.84;;;8.77;32.85
75438;BME280;64015;49.392;15.582;2023-02-10T10:41:22;97479.41;;;9.38;31.87
75438;BME280;64015;49.392;15.582;2023-02-10T10:43:52;97468.38;;;10.02;31.61
75438;BME280;64015;49.392;15.582;2023-02-10T10:46:23;97471.03;;;9.84;31.31
75438;BME280;64015;49.392;15.582;2023-02-10T10:48:52;97473.66;;;8.73;33.79
75438;BME280;64015;49.392;15.582;2023-02-10T10:51:18;97481.16;;;9.01;33.50
75438;BME280;64015;49.392;15.582;2023-02-10T10:53:53;97481.69;;;8.15;33.64
75438;BME280;64015;49.392;15.582;2023-02-10T11:01:49;97464.84;;;5.66;36.99
75438;BME280;64015;49.392;15.582;2023-02-10T11:04:23;97473.25;;;5.89;36.56
75438;BME280;64015;49.392;15.582;2023-02-10T11:06:57;97473.84;;;7.25;34.43
75438;BME280;64015;49.392;15.582;2023-02-10T11:09:31;97476.50;;;7.89;32.71
75438;BME280;64015;49.392;15.582;2023-02-10T11:12:33;97476.00;;;8.18;32.26
75438;BME280;64015;49.392;15.582;2023-02-10T11:15:02;97460.97;;;8.70;31.68
75438;BME280;64015;49.392;15.582;2023-02-10T11:22:31;97468.25;;;9.43;29.11
75438;BME280;64015;49.392;15.582;2023-02-10T11:25:03;97451.25;;;8.95;29.74
75438;BME280;64015;49.392;15.582;2023-02-10T11:27:33;97447.25;;;8.62;30.22
75438;BME280;64015;49.392;15.582;2023-02-10T11:29:59;97450.47;;;8.64;30.35
75438;BME280;64015;49.392;15.582;2023-02-10T11:32:30;97455.03;;;8.75;31.13
75438;BME280;64015;49.392;15.582;2023-02-10T11:34:59;97451.47;;;8.63;30.67
75438;BME280;64015;49.392;15.582;2023-02-10T11:37:29;97460.69;;;8.78;31.02
75438;BME280;64015;49.392;15.582;2023-02-10T11:40:00;97454.34;;;8.86;30.21
75438;BME280;64015;49.392;15.582;2023-02-10T11:42:46;97458.59;;;9.12;29.58
75438;BME280;64015;49.392;15.582;2023-02-10T11:45:18;97464.44;;;9.14;29.42
75438;BME280;64015;49.392;15.582;2023-02-10T11:47:47;97450.75;;;9.48;29.12
75438;BME280;64015;49.392;15.582;2023-02-10T11:50:28;97444.84;;;9.53;29.14
75438;BME280;64015;49.392;15.582;2023-02-10T11:52:55;97454.03;;;9.98;29.01
75438;BME280;64015;49.392;15.582;2023-02-10T11:55:25;97452.13;;;10.54;27.41
75438;BME280;64015;49.392;15.582;2023-02-10T12:09:36;97440.38;;;12.41;26.51
75438;BME280;64015;49.392;15.582;2023-02-10T12:14:56;97441.16;;;11.62;26.43
75438;BME280;64015;49.392;15.582;2023-02-10T12:25:53;97443.59;;;11.05;27.07
75438;BME280;64015;49.392;15.582;2023-02-10T12:31:36;97444.97;;;10.84;28.17
75438;BME280;64015;49.392;15.582;2023-02-10T12:42:34;97435.47;;;13.67;23.75
75438;BME280;64015;49.392;15.582;2023-02-10T12:47:54;97452.66;;;10.44;25.78
75438;BME280;64015;49.392;15.582;2023-02-10T12:53:03;97434.25;;;8.42;29.39
75438;BME280;64015;49.392;15.582;2023-02-10T12:58:40;97439.63;;;7.64;30.55
75438;BME280;64015;49.392;15.582;2023-02-10T13:01:28;97428.56;;;8.00;29.54
75438;BME280;64015;49.392;15.582;2023-02-10T13:04:28;97435.97;;;7.78;29.61
75438;BME280;64015;49.392;15.582;2023-02-10T13:07:07;97442.94;;;7.33;30.50
75438;BME280;64015;49.392;15.582;2023-02-10T13:09:40;97432.13;;;6.84;31.37
75438;BME280;64015;49.392;15.582;2023-02-10T13:12:23;97434.09;;;7.15;31.75
75438;BME280;64015;49.392;15.582;2023-02-10T13:14:58;97437.75;;;6.48;33.33
75438;BME280;64015;49.392;15.582;2023-02-10T13:17:48;97444.00;;;6.47;33.38
75438;BME280;64015;49.392;15.582;2023-02-10T13:20:40;97448.28;;;5.93;34.79
75438;BME280;64015;49.392;15.582;2023-02-10T13:23:31;97442.25;;;5.52;36.20
75438;BME280;64015;49.392;15.582;2023-02-10T13:34:51;97456.03;;;4.56;39.04
75438;BME280;64015;49.392;15.582;2023-02-10T13:37:41;97450.59;;;4.50;39.13
75438;BME280;64015;49.392;15.582;2023-02-10T13:40:28;97449.81;;;4.14;40.76
75438;BME280;64015;49.392;15.582;2023-02-10T13:43:03;97455.28;;;3.83;41.79
75438;BME280;64015;49.392;15.582;2023-02-10T13:45:36;97451.50;;;3.86;41.97
75438;BME280;64015;49.392;15.582;2023-02-10T13:48:20;97452.97;;;3.73;41.83
75438;BME280;64015;49.392;15.582;2023-02-10T13:50:57;97461.25;;;3.62;42.72
75438;BME280;64015;49.392;15.582;2023-02-10T14:01:40;97462.06;;;3.04;45.58
75438;BME280;64015;49.392;15.582;2023-02-10T14:04:46;97462.19;;;2.88;46.76
75438;BME280;64015;49.392;15.582;2023-02-10T14:07:17;97460.69;;;2.93;46.48
75438;BME280;64015;49.392;15.582;2023-02-10T14:12:32;97472.59;;;2.73;48.03
75438;BME280;64015;49.392;15.582;2023-02-10T14:15:38;97456.00;;;2.51;48.95
75438;BME280;64015;49.392;15.582;2023-02-10T14:18:20;97458.19;;;2.62;48.92
75438;BME280;64015;49.392;15.582;2023-02-10T14:20:55;97455.91;;;2.45;48.93
75438;BME280;64015;49.392;15.582;2023-02-10T14:23:22;97464.34;;;2.47;49.34
75438;BME280;64015;49.392;15.582;2023-02-10T14:25:48;97462.03;;;2.52;50.02
75438;BME280;64015;49.392;15.582;2023-02-10T14:28:27;97463.00;;;2.51;49.60
75438;BME280;64015;49.392;15.582;2023-02-10T14:30:56;97470.94;;;2.35;50.71
75438;BME280;64015;49.392;15.582;2023-02-10T14:33:41;97475.56;;;2.24;51.30
75438;BME280;64015;49.392;15.582;2023-02-10T14:36:16;97463.03;;;1.97;52.25
75438;BME280;64015;49.392;15.582;2023-02-10T14:38:44;97464.53;;;1.92;52.64
75438;BME280;64015;49.392;15.582;2023-02-10T14:41:15;97465.59;;;2.05;52.30
75438;BME280;64015;49.392;15.582;2023-02-10T14:43:41;97469.22;;;1.96;53.34
75438;BME280;64015;49.392;15.582;2023-02-10T14:46:07;97467.56;;;2.03;52.57
75438;BME280;64015;49.392;15.582;2023-02-10T14:48:42;97470.34;;;2.02;53.40
75438;BME280;64015;49.392;15.582;2023-02-10T14:51:23;97462.78;;;2.15;52.69
75438;BME280;64015;49.392;15.582;2023-02-10T14:53:49;97465.00;;;1.95;54.13
75438;BME280;64015;49.392;15.582;2023-02-10T14:56:25;97467.84;;;2.08;53.66
75438;BME280;64015;49.392;15.582;2023-02-10T14:58:51;97478.97;;;2.02;53.32
75438;BME280;64015;49.392;15.582;2023-02-10T15:01:30;97470.78;;;1.82;54.79
75438;BME280;64015;49.392;15.582;2023-02-10T15:03:58;97468.00;;;1.84;55.34
75438;BME280;64015;49.392;15.582;2023-02-10T15:06:46;97477.38;;;1.93;54.96
75438;BME280;64015;49.392;15.582;2023-02-10T15:10:24;97477.38;;;1.93;55.50
75438;BME280;64015;49.392;15.582;2023-02-10T15:12:50;97468.94;;;1.91;55.75
75438;BME280;64015;49.392;15.582;2023-02-10T15:15:34;97471.59;;;1.83;56.08
75438;BME280;64015;49.392;15.582;2023-02-10T15:18:18;97469.44;;;1.86;56.31
75438;BME280;64015;49.392;15.582;2023-02-10T15:21:00;97468.22;;;1.74;57.09
75438;BME280;64015;49.392;15.582;2023-02-10T15:23:26;97476.50;;;1.70;57.09
75438;BME280;64015;49.392;15.582;2023-02-10T15:26:20;97471.63;;;1.75;57.61
75438;BME280;64015;49.392;15.582;2023-02-10T15:29:00;97463.47;;;1.78;57.62
75438;BME280;64015;49.392;15.582;2023-02-10T15:31:28;97463.97;;;1.73;57.75
75438;BME280;64015;49.392;15.582;2023-02-10T15:33:56;97458.94;;;1.72;58.02
75438;BME280;64015;49.392;15.582;2023-02-10T15:41:37;97475.59;;;1.55;59.69
75438;BME280;64015;49.392;15.582;2023-02-10T15:44:24;97463.44;;;1.47;59.88
75438;BME280;64015;49.392;15.582;2023-02-10T15:47:18;97470.09;;;1.49;60.35
75438;BME280;64015;49.392;15.582;2023-02-10T15:49:39;97468.84;;;1.37;60.55
75438;BME280;64015;49.392;15.582;2023-02-10T15:52:05;97462.16;;;1.43;60.52
75438;BME280;64015;49.392;15.582;2023-02-10T15:54:31;97465.50;;;1.60;59.98
75438;BME280;64015;49.392;15.582;2023-02-10T15:57:00;97466.88;;;1.47;60.73
75438;BME280;64015;49.392;15.582;2023-02-10T15:59:28;97479.97;;;1.62;60.43
75438;BME280;64015;49.392;15.582;2023-02-10T16:02:10;97474.19;;;1.44;60.89
75438;BME280;64015;49.392;15.582;2023-02-10T16:04:37;97474.00;;;1.45;61.76
75438;BME280;64015;49.392;15.582;2023-02-10T16:07:04;97478.91;;;1.32;61.80
75438;BME280;64015;49.392;15.582;2023-02-10T16:09:31;97466.34;;;1.52;61.54
75438;BME280;64015;49.392;15.582;2023-02-10T16:11:59;97469.84;;;1.28;62.28
75438;BME280;64015;49.392;15.582;2023-02-10T16:14:31;97479.91;;;1.23;62.64
75438;BME280;64015;49.392;15.582;2023-02-10T16:16:58;97475.03;;;1.36;62.59
75438;BME280;64015;49.392;15.582;2023-02-10T16:19:27;97470.28;;;1.40;61.82
75438;BME280;64015;49.392;15.582;2023-02-10T16:21:53;97480.88;;;1.30;62.32